createdAt,value
2018-11-10T00:02:29.359Z,3.80
2018-11-10T00:05:09.823Z,4.30
2018-11-10T00:07:47.660Z,4.30
2018-11-10T00:10:26.288Z,4.03
2018-11-10T00:13:03.073Z,5.13
2018-11-10T00:15:42.690Z,4.60
2018-11-10T00:18:27.134Z,4.63
2018-11-10T00:21:08.295Z,5.27
2018-11-10T00:23:50.482Z,5.00
2018-11-10T00:26:32.147Z,6.00
2018-11-10T00:29:14.109Z,5.67
2018-11-10T00:31:56.070Z,6.20
2018-11-10T00:34:38.411Z,5.90
2018-11-10T00:37:20.114Z,5.73
2018-11-10T00:40:04.328Z,5.67
2018-11-10T00:42:46.198Z,5.57
2018-11-10T00:45:29.364Z,6.30
2018-11-10T00:48:11.181Z,5.87
2018-11-10T00:50:51.576Z,5.70
2018-11-10T00:53:33.496Z,6.07
2018-11-10T00:56:16.363Z,5.63
2018-11-10T00:58:57.504Z,5.83
2018-11-10T01:01:38.278Z,5.00
2018-11-10T01:04:07.760Z,4.57
2018-11-10T01:06:41.486Z,4.43
2018-11-10T01:09:26.228Z,4.63
2018-11-10T01:12:03.921Z,4.47
2018-11-10T01:14:43.219Z,4.70
2018-11-10T01:17:13.241Z,4.30
2018-11-10T01:19:54.399Z,4.00
2018-11-10T01:22:36.564Z,3.70
2018-11-10T01:25:19.980Z,4.23
2018-11-10T01:28:01.551Z,4.73
2018-11-10T01:30:44.586Z,5.07
2018-11-10T01:33:27.277Z,4.97
2018-11-10T01:36:06.017Z,5.83
2018-11-10T01:38:39.396Z,5.77
2018-11-10T01:41:12.374Z,5.73
2018-11-10T01:43:54.815Z,5.90
2018-11-10T01:46:36.881Z,5.83
2018-11-10T01:49:20.626Z,5.87
2018-11-10T01:52:04.086Z,5.80
2018-11-10T01:54:47.398Z,5.60
2018-11-10T01:57:29.042Z,5.47
2018-11-10T02:00:08.712Z,6.03
2018-11-10T02:02:51.273Z,5.70
2018-11-10T02:05:34.163Z,6.00
2018-11-10T02:08:16.105Z,6.43
2018-11-10T02:10:56.970Z,5.87
2018-11-10T02:13:38.934Z,6.27
2018-11-10T02:16:22.626Z,5.00
2018-11-10T02:19:04.365Z,5.50
2018-11-10T02:21:47.634Z,5.10
2018-11-10T02:24:32.022Z,4.90
2018-11-10T02:27:17.566Z,4.73
2018-11-10T02:30:01.305Z,4.50
2018-11-10T02:32:43.419Z,4.43
2018-11-10T02:35:25.334Z,3.90
2018-11-10T02:38:07.349Z,4.00
2018-11-10T02:40:50.841Z,4.57
2018-11-10T02:43:35.185Z,3.63
2018-11-10T02:46:16.394Z,3.70
2018-11-10T02:48:55.438Z,3.70
2018-11-10T02:51:36.276Z,3.33
2018-11-10T02:54:20.180Z,3.70
2018-11-10T02:57:01.825Z,4.00
2018-11-10T02:59:43.496Z,3.33
2018-11-10T03:02:23.162Z,3.37
2018-11-10T03:04:54.905Z,3.27
2018-11-10T03:07:40.123Z,3.60
2018-11-10T03:10:20.312Z,3.40
2018-11-10T03:13:03.519Z,3.30
2018-11-10T03:15:45.717Z,2.90
2018-11-10T03:18:26.381Z,2.53
2018-11-10T03:21:09.654Z,2.50
2018-11-10T03:23:53.563Z,2.47
2018-11-10T03:26:35.967Z,2.27
2018-11-10T03:29:20.095Z,2.37
2018-11-10T03:32:02.111Z,2.13
2018-11-10T03:34:44.680Z,2.00
2018-11-10T03:37:25.840Z,2.10
2018-11-10T03:40:06.660Z,2.20
2018-11-10T03:42:49.297Z,2.00
2018-11-10T03:45:33.713Z,1.63
2018-11-10T03:48:15.955Z,1.60
2018-11-10T03:50:58.317Z,2.00
2018-11-10T03:53:38.387Z,1.83
2018-11-10T03:56:21.601Z,1.47
2018-11-10T03:59:01.832Z,1.30
2018-11-10T04:01:46.557Z,1.10
2018-11-10T04:04:16.082Z,1.17
2018-11-10T04:06:58.976Z,1.00
2018-11-10T04:09:40.326Z,1.00
2018-11-10T04:12:23.820Z,0.80
2018-11-10T04:15:07.113Z,1.13
2018-11-10T04:17:43.324Z,1.07
2018-11-10T04:20:25.491Z,1.20
2018-11-10T04:23:08.008Z,0.90
2018-11-10T04:25:49.820Z,0.90
2018-11-10T04:28:31.915Z,0.90
2018-11-10T04:31:15.701Z,1.00
2018-11-10T04:33:57.996Z,1.17
2018-11-10T04:36:41.935Z,1.00
2018-11-10T04:39:21.942Z,1.10
2018-11-10T04:42:06.512Z,0.93
2018-11-10T04:44:49.980Z,1.10
2018-11-10T04:47:31.694Z,1.00
2018-11-10T04:50:15.758Z,1.20
2018-11-10T04:52:57.849Z,1.00
2018-11-10T04:55:39.867Z,1.07
2018-11-10T04:58:22.009Z,1.40
2018-11-10T05:01:03.744Z,1.00
2018-11-10T05:03:33.242Z,1.27
2018-11-10T05:06:15.977Z,1.03
2018-11-10T05:09:00.472Z,1.20
2018-11-10T05:11:42.175Z,1.00
2018-11-10T05:14:24.026Z,1.17
2018-11-10T05:17:03.582Z,1.07
2018-11-10T05:19:45.888Z,1.17
2018-11-10T05:22:27.420Z,1.00
2018-11-10T05:25:04.277Z,1.30
2018-11-10T05:27:43.804Z,1.20
2018-11-10T05:30:25.874Z,1.20
2018-11-10T05:33:05.031Z,1.20
2018-11-10T05:35:47.024Z,1.13
2018-11-10T05:38:29.339Z,1.20
2018-11-10T05:41:11.755Z,1.60
2018-11-10T05:43:55.095Z,1.73
2018-11-10T05:46:37.211Z,1.20
2018-11-10T05:49:21.377Z,1.27
2018-11-10T05:52:02.394Z,1.60
2018-11-10T05:54:41.013Z,1.50
2018-11-10T05:57:20.464Z,1.50
2018-11-10T05:59:59.464Z,1.50
2018-11-10T06:02:38.809Z,1.40
2018-11-10T06:05:19.745Z,1.67
2018-11-10T06:08:00.397Z,1.40
2018-11-10T06:10:45.775Z,1.20
2018-11-10T06:13:28.843Z,1.37
2018-11-10T06:16:12.830Z,1.20
2018-11-10T06:18:54.597Z,1.20
2018-11-10T06:21:37.786Z,1.40
2018-11-10T06:24:20.417Z,1.20
2018-11-10T06:27:02.820Z,1.37
2018-11-10T06:29:45.034Z,1.47
2018-11-10T06:32:28.852Z,1.50
2018-11-10T06:35:09.190Z,1.67
2018-11-10T06:37:52.729Z,1.70
2018-11-10T06:40:31.670Z,1.60
2018-11-10T06:43:15.512Z,2.07
2018-11-10T06:46:00.077Z,1.87
2018-11-10T06:48:45.090Z,1.90
2018-11-10T06:51:26.758Z,1.90
2018-11-10T06:54:08.598Z,1.80
2018-11-10T06:56:53.988Z,2.10
2018-11-10T06:59:35.054Z,1.77
2018-11-10T07:02:16.069Z,1.47
2018-11-10T07:04:45.851Z,1.60
2018-11-10T07:07:28.529Z,1.67
2018-11-10T07:10:10.872Z,1.70
2018-11-10T07:12:53.408Z,1.70
2018-11-10T07:15:33.276Z,1.70
2018-11-10T07:18:14.957Z,1.70
2018-11-10T07:20:54.453Z,1.43
2018-11-10T07:23:37.619Z,1.67
2018-11-10T07:26:19.060Z,1.70
2018-11-10T07:29:02.675Z,1.70
2018-11-10T07:31:40.989Z,1.50
2018-11-10T07:34:20.339Z,1.70
2018-11-10T07:36:58.599Z,1.60
2018-11-10T07:39:42.014Z,1.33
2018-11-10T07:42:23.934Z,1.37
2018-11-10T07:45:06.390Z,1.50
2018-11-10T07:47:51.284Z,1.70
2018-11-10T07:50:33.829Z,1.53
2018-11-10T07:53:16.767Z,1.30
2018-11-10T07:55:59.138Z,1.63
2018-11-10T07:58:39.672Z,1.97
2018-11-10T08:01:21.938Z,2.10
2018-11-10T08:03:52.561Z,1.90
2018-11-10T08:06:34.193Z,1.80
2018-11-10T08:09:20.310Z,2.00
2018-11-10T08:12:03.442Z,2.20
2018-11-10T08:14:45.948Z,2.77
2018-11-10T08:17:29.485Z,3.03
2018-11-10T08:20:14.226Z,3.53
2018-11-10T08:22:56.862Z,4.40
2018-11-10T08:25:39.624Z,5.03
2018-11-10T08:28:22.420Z,5.20
2018-11-10T08:31:04.527Z,5.17
2018-11-10T08:33:46.001Z,5.23
2018-11-10T08:36:27.913Z,5.73
2018-11-10T08:39:11.477Z,5.70
2018-11-10T08:41:55.220Z,6.00
2018-11-10T08:44:37.958Z,5.60
2018-11-10T08:47:17.951Z,6.50
2018-11-10T08:50:01.244Z,5.63
2018-11-10T08:52:44.505Z,5.40
2018-11-10T08:55:24.948Z,5.97
2018-11-10T08:58:08.388Z,5.47
2018-11-10T09:00:49.603Z,5.77
2018-11-10T09:03:19.789Z,5.10
2018-11-10T09:05:57.144Z,4.97
2018-11-10T09:08:33.402Z,5.30
2018-11-10T09:11:07.190Z,4.80
2018-11-10T09:13:48.506Z,4.90
2018-11-10T09:16:23.937Z,5.13
2018-11-10T09:18:58.411Z,4.90
2018-11-10T09:21:41.352Z,4.70
2018-11-10T09:24:18.951Z,4.80
2018-11-10T09:26:58.686Z,4.87
2018-11-10T09:29:39.651Z,4.83
2018-11-10T09:32:18.217Z,4.60
2018-11-10T09:34:59.365Z,4.50
2018-11-10T09:37:39.348Z,4.33
2018-11-10T09:40:21.838Z,4.53
2018-11-10T09:43:02.729Z,4.63
2018-11-10T09:45:43.078Z,4.80
2018-11-10T09:48:21.688Z,4.73
2018-11-10T09:51:01.055Z,4.77
2018-11-10T09:53:42.466Z,4.57
2018-11-10T09:56:26.590Z,4.60
2018-11-10T09:59:05.814Z,5.57
2018-11-10T10:01:44.339Z,4.80
2018-11-10T10:04:14.997Z,5.17
2018-11-10T10:06:57.195Z,4.63
2018-11-10T10:09:38.119Z,4.70
2018-11-10T10:12:21.280Z,4.83
2018-11-10T10:15:04.418Z,4.40
2018-11-10T10:17:47.284Z,3.73
2018-11-10T10:20:27.978Z,4.77
2018-11-10T10:23:09.564Z,2.80
2018-11-10T10:25:53.059Z,3.20
2018-11-10T10:28:37.149Z,2.87
2018-11-10T10:31:21.074Z,2.80
2018-11-10T10:34:02.397Z,2.70
2018-11-10T10:36:43.741Z,2.80
2018-11-10T10:39:26.080Z,2.57
2018-11-10T10:42:09.825Z,2.80
2018-11-10T10:44:52.561Z,2.27
2018-11-10T10:47:35.192Z,2.77
2018-11-10T10:50:18.876Z,2.90
2018-11-10T10:52:59.485Z,2.60
2018-11-10T10:55:42.728Z,2.50
2018-11-10T10:58:23.889Z,2.70
2018-11-10T11:01:10.895Z,3.10
2018-11-10T11:03:46.356Z,2.90
2018-11-10T11:06:29.839Z,2.83
2018-11-10T11:09:10.435Z,2.67
2018-11-10T11:11:53.771Z,2.70
2018-11-10T11:14:36.403Z,2.60
2018-11-10T11:17:20.077Z,2.90
2018-11-10T11:20:02.619Z,3.00
2018-11-10T11:22:44.329Z,3.00
2018-11-10T11:25:26.043Z,3.10
2018-11-10T11:28:12.209Z,2.77
2018-11-10T11:30:54.934Z,3.20
2018-11-10T11:33:39.418Z,3.60
2018-11-10T11:36:22.190Z,3.03
2018-11-10T11:39:05.093Z,2.90
2018-11-10T11:41:41.173Z,3.40
2018-11-10T11:44:24.579Z,2.93
2018-11-10T11:47:07.323Z,3.40
2018-11-10T11:49:51.215Z,3.20
2018-11-10T11:52:36.341Z,3.30
2018-11-10T11:55:20.090Z,3.07
2018-11-10T11:58:01.466Z,3.03
2018-11-10T12:00:44.724Z,2.83
2018-11-10T12:03:26.610Z,3.10
2018-11-10T12:05:56.396Z,2.63
2018-11-10T12:08:37.796Z,2.80
2018-11-10T12:11:18.709Z,3.30
2018-11-10T12:14:00.403Z,3.00
2018-11-10T12:16:41.311Z,3.00
2018-11-10T12:19:20.933Z,3.17
2018-11-10T12:22:04.399Z,3.40
2018-11-10T12:24:47.047Z,3.40
2018-11-10T12:27:28.826Z,3.40
2018-11-10T12:30:12.671Z,4.00
2018-11-10T12:32:55.907Z,4.17
2018-11-10T12:35:36.532Z,4.30
2018-11-10T12:38:18.071Z,4.10
2018-11-10T12:41:00.678Z,4.27
2018-11-10T12:43:44.195Z,4.30
2018-11-10T12:46:25.232Z,4.30
2018-11-10T12:49:07.371Z,4.20
2018-11-10T12:51:50.439Z,4.43
2018-11-10T12:54:31.503Z,4.47
2018-11-10T12:57:12.498Z,4.90
2018-11-10T12:59:54.187Z,5.00
2018-11-10T13:02:37.373Z,4.93
2018-11-10T13:05:08.500Z,4.83
2018-11-10T13:07:51.234Z,5.40
2018-11-10T13:10:35.243Z,5.50
2018-11-10T13:13:12.705Z,5.70
2018-11-10T13:15:58.782Z,5.00
2018-11-10T13:18:40.945Z,5.80
2018-11-10T13:21:26.287Z,5.80
2018-11-10T13:24:09.541Z,5.57
2018-11-10T13:26:52.499Z,5.10
2018-11-10T13:29:35.085Z,5.30
2018-11-10T13:32:17.495Z,5.40
2018-11-10T13:34:57.496Z,5.40
2018-11-10T13:37:41.229Z,5.33
2018-11-10T13:40:21.345Z,5.20
2018-11-10T13:43:01.979Z,5.50
2018-11-10T13:45:43.453Z,5.73
2018-11-10T13:48:26.066Z,5.30
2018-11-10T13:51:07.728Z,5.50
2018-11-10T13:53:54.496Z,5.53
2018-11-10T13:56:36.912Z,6.17
2018-11-10T13:59:18.965Z,6.10
2018-11-10T14:01:59.692Z,5.97
2018-11-10T14:04:29.839Z,5.37
2018-11-10T14:07:10.794Z,5.27
2018-11-10T14:09:51.469Z,5.57
2018-11-10T14:12:30.684Z,6.40
2018-11-10T14:15:13.822Z,5.23
2018-11-10T14:17:55.217Z,4.70
2018-11-10T14:20:36.860Z,5.40
2018-11-10T14:23:17.695Z,5.17
2018-11-10T14:25:59.008Z,5.37
2018-11-10T14:28:41.300Z,5.33
2018-11-10T14:31:24.164Z,6.23
2018-11-10T14:34:03.583Z,7.00
2018-11-10T14:36:37.925Z,6.80
2018-11-10T14:39:13.022Z,7.37
2018-11-10T14:41:47.429Z,7.10
2018-11-10T14:44:20.372Z,8.07
2018-11-10T14:46:56.130Z,8.00
2018-11-10T14:49:28.898Z,8.10
2018-11-10T14:51:57.914Z,8.70
2018-11-10T14:54:30.926Z,8.97
2018-11-10T14:57:00.239Z,8.40
2018-11-10T14:59:32.775Z,9.30
2018-11-10T15:02:04.916Z,9.33
2018-11-10T15:04:41.824Z,10.27
2018-11-10T15:07:15.638Z,11.10
2018-11-10T15:09:51.305Z,11.30
2018-11-10T15:12:26.314Z,12.53
2018-11-10T15:15:00.564Z,12.33
2018-11-10T15:17:34.691Z,11.40
2018-11-10T15:20:07.742Z,11.90
2018-11-10T15:22:38.909Z,9.90
2018-11-10T15:25:19.417Z,10.43
2018-11-10T15:27:55.946Z,10.67
2018-11-10T15:30:30.409Z,11.50
2018-11-10T15:33:05.245Z,11.87
2018-11-10T15:35:44.135Z,12.33
2018-11-10T15:38:18.155Z,12.77
2018-11-10T15:40:54.852Z,13.53
2018-11-10T15:43:24.215Z,13.57
2018-11-10T15:46:01.551Z,14.97
2018-11-10T15:48:42.941Z,14.17
2018-11-10T15:51:26.446Z,13.60
2018-11-10T15:54:09.653Z,12.90
2018-11-10T15:56:50.611Z,13.13
2018-11-10T15:59:32.829Z,12.73
2018-11-10T16:02:10.805Z,13.80
2018-11-10T16:04:51.482Z,15.53
2018-11-10T16:07:32.872Z,15.73
2018-11-10T16:10:18.066Z,14.13
2018-11-10T16:13:00.678Z,15.30
2018-11-10T16:15:40.299Z,15.27
2018-11-10T16:18:21.261Z,16.47
2018-11-10T16:21:02.092Z,18.43
2018-11-10T16:23:42.292Z,17.37
2018-11-10T16:26:24.308Z,16.90
2018-11-10T16:29:05.447Z,15.53
2018-11-10T16:31:44.908Z,15.87
2018-11-10T16:34:22.582Z,16.50
2018-11-10T16:37:00.373Z,17.53
2018-11-10T16:39:35.142Z,16.90
2018-11-10T16:42:08.152Z,16.87
2018-11-10T16:44:44.445Z,15.40
2018-11-10T16:47:20.078Z,16.23
2018-11-10T16:49:54.514Z,16.47
2018-11-10T16:52:34.143Z,16.27
2018-11-10T16:55:12.575Z,16.77
2018-11-10T16:57:42.009Z,16.70
2018-11-10T17:00:18.214Z,17.23
2018-11-10T17:02:48.376Z,16.00
2018-11-10T17:05:18.487Z,17.33
2018-11-10T17:07:47.939Z,17.27
2018-11-10T17:10:29.087Z,17.50
2018-11-10T17:13:11.865Z,17.87
2018-11-10T17:15:52.111Z,18.90
2018-11-10T17:18:25.267Z,17.97
2018-11-10T17:21:06.566Z,18.70
2018-11-10T17:23:48.453Z,16.67
2018-11-10T17:26:32.822Z,16.80
2018-11-10T17:29:10.735Z,18.27
2018-11-10T17:31:50.127Z,18.80
2018-11-10T17:34:34.673Z,16.40
2018-11-10T17:37:13.537Z,16.33
2018-11-10T17:39:54.396Z,17.60
2018-11-10T17:42:27.888Z,18.70
2018-11-10T17:45:03.518Z,20.80
2018-11-10T17:47:41.674Z,20.13
2018-11-10T17:50:17.874Z,19.80
2018-11-10T17:52:48.002Z,19.60
2018-11-10T17:55:22.539Z,19.03
2018-11-10T17:57:59.516Z,19.63
2018-11-10T18:00:35.804Z,19.27
2018-11-10T18:03:14.066Z,18.70
2018-11-10T18:05:52.736Z,18.40
2018-11-10T18:08:22.364Z,19.60
2018-11-10T18:10:58.356Z,18.13
2018-11-10T18:13:37.361Z,17.27
2018-11-10T18:16:21.968Z,18.17
2018-11-10T18:19:05.362Z,17.13
2018-11-10T18:22:46.746Z,21.33
2018-11-10T18:25:15.998Z,19.23
2018-11-10T18:27:50.771Z,20.33
2018-11-10T18:30:23.752Z,20.77
2018-11-10T18:33:00.168Z,20.80
2018-11-10T18:35:33.587Z,20.57
2018-11-10T18:38:10.527Z,20.53
2018-11-10T18:40:42.489Z,20.00
2018-11-10T18:43:18.533Z,21.23
2018-11-10T18:45:53.363Z,19.97
2018-11-10T18:48:29.682Z,18.53
2018-11-10T18:51:06.071Z,18.53
2018-11-10T18:53:46.136Z,19.40
2018-11-10T18:56:26.032Z,17.73
2018-11-10T18:59:04.316Z,19.43
2018-11-10T19:01:42.500Z,18.40
2018-11-10T19:04:19.929Z,18.33
2018-11-10T19:06:55.022Z,19.50
2018-11-10T19:09:28.406Z,18.10
2018-11-10T19:12:05.171Z,18.27
2018-11-10T19:14:39.980Z,18.20
2018-11-10T19:17:16.107Z,17.60
2018-11-10T19:19:51.725Z,16.90
2018-11-10T19:22:28.634Z,19.27
2018-11-10T19:25:04.262Z,18.17
2018-11-10T19:27:41.547Z,18.93
2018-11-10T19:30:14.990Z,17.70
2018-11-10T19:32:47.317Z,19.50
2018-11-10T19:35:25.753Z,18.03
2018-11-10T19:38:02.662Z,18.07
2018-11-10T19:40:37.921Z,17.63
2018-11-10T19:43:10.652Z,18.43
2018-11-10T19:45:50.101Z,17.80
2018-11-10T19:48:30.270Z,17.30
2018-11-10T19:51:01.241Z,17.30
2018-11-10T19:53:37.790Z,18.03
2018-11-10T19:56:16.405Z,18.77
2018-11-10T19:58:54.480Z,18.40
2018-11-10T20:01:28.901Z,19.30
2018-11-10T20:04:04.815Z,19.43
2018-11-10T20:06:39.889Z,19.73
2018-11-10T20:09:14.787Z,19.37
2018-11-10T20:11:53.125Z,19.07
2018-11-10T20:14:28.553Z,19.93
2018-11-10T20:17:09.040Z,18.30
2018-11-10T20:19:43.266Z,18.87
2018-11-10T20:22:18.091Z,17.77
2018-11-10T20:24:53.377Z,17.90
2018-11-10T20:27:29.691Z,18.53
2018-11-10T20:30:05.525Z,18.90
2018-11-10T20:32:38.650Z,18.57
2018-11-10T20:35:13.139Z,19.07
2018-11-10T20:37:53.240Z,19.50
2018-11-10T20:40:28.986Z,18.73
2018-11-10T20:43:06.242Z,18.63
2018-11-10T20:45:43.275Z,20.73
2018-11-10T20:48:23.158Z,19.30
2018-11-10T20:51:00.634Z,19.67
2018-11-10T20:53:39.071Z,21.10
2018-11-10T20:56:16.738Z,20.23
2018-11-10T20:58:55.894Z,20.87
2018-11-10T21:01:35.361Z,20.53
2018-11-10T21:04:04.701Z,22.20
2018-11-10T21:06:41.262Z,22.10
2018-11-10T21:09:23.915Z,20.13
2018-11-10T21:12:05.133Z,22.43
2018-11-10T21:14:47.222Z,21.90
2018-11-10T21:17:17.337Z,20.73
2018-11-10T21:20:00.169Z,20.37
2018-11-10T21:22:35.031Z,21.10
2018-11-10T21:25:08.941Z,19.70
2018-11-10T21:27:46.572Z,19.90
2018-11-10T21:30:26.072Z,18.60
2018-11-10T21:33:06.609Z,19.77
2018-11-10T21:35:42.341Z,20.27
2018-11-10T21:38:12.036Z,22.27
2018-11-10T21:40:43.973Z,22.43
2018-11-10T21:43:23.081Z,21.37
2018-11-10T21:45:57.848Z,20.73
2018-11-10T21:48:35.896Z,20.87
2018-11-10T21:51:11.874Z,21.03
2018-11-10T21:53:54.724Z,21.20
2018-11-10T21:56:33.059Z,20.80
2018-11-10T21:59:12.613Z,20.47
2018-11-10T22:01:52.502Z,20.10
2018-11-10T22:04:21.860Z,19.43
2018-11-10T22:07:04.166Z,19.10
2018-11-10T22:09:43.704Z,19.23
2018-11-10T22:15:11.829Z,19.00
2018-11-10T22:17:52.284Z,20.47
2018-11-10T22:20:36.367Z,19.60
2018-11-10T22:23:24.270Z,18.83
2018-11-10T22:26:16.019Z,19.00
2018-11-10T22:31:54.378Z,18.87
2018-11-10T22:34:44.221Z,18.47
2018-11-10T22:37:28.095Z,19.17
2018-11-10T22:40:17.716Z,20.00
2018-11-10T22:42:57.525Z,19.47
2018-11-10T22:45:45.918Z,19.10
2018-11-10T22:48:31.022Z,19.47
2018-11-10T22:51:17.054Z,19.40
2018-11-10T22:54:02.765Z,19.07
2018-11-10T22:56:41.060Z,18.87
2018-11-10T22:59:23.585Z,19.13
2018-11-10T23:02:10.811Z,19.80
2018-11-10T23:04:41.966Z,19.00
2018-11-10T23:07:23.970Z,19.47
2018-11-10T23:10:08.057Z,18.63
2018-11-10T23:12:50.799Z,18.03
2018-11-10T23:15:34.605Z,17.73
2018-11-10T23:18:15.461Z,17.60
2018-11-10T23:21:07.983Z,16.87
2018-11-10T23:23:52.424Z,18.07
2018-11-10T23:26:41.290Z,18.00
2018-11-10T23:29:28.730Z,18.47
2018-11-10T23:32:10.903Z,16.80
2018-11-10T23:34:55.536Z,17.47
2018-11-10T23:40:25.770Z,18.87
2018-11-10T23:43:08.622Z,18.03
2018-11-10T23:46:07.600Z,19.10
2018-11-10T23:48:56.119Z,16.90
2018-11-10T23:51:41.959Z,18.50
2018-11-10T23:54:35.567Z,17.37
2018-11-10T23:57:18.162Z,18.10
